Time;durP1;ratioP1;P1;durP2;ratioP2;P2;SDS_P1;SDS_P2;PMS_P1;PMS_P2;Temp;Humidity;BMP_temperature;BMP_pressure;BME280_temperature;BME280_humidity;BME280_pressure;Samples;Min_cycle;Max_cycle;Signal;HPM_P1;HPM_P2
2023/06/16 00:03:15;;;;;;;3.72;2.80;;;;;;;21.59;34.90;100181.84;10309154;28;20069;-51
2023/06/16 00:08:19;;;;;;;5.80;2.80;;;;;;;21.50;35.07;100193.84;10305178;28;20152;-51
2023/06/16 00:13:20;;;;;;;4.28;3.03;;;;;;;21.39;35.62;100181.63;10293129;28;20457;-50
2023/06/16 00:18:23;;;;;;;4.00;3.20;;;;;;;21.43;35.44;100192.94;10303583;28;20057;-51
2023/06/16 00:23:25;;;;;;;4.75;3.17;;;;;;;21.49;35.29;100181.31;10307478;28;20050;-51
2023/06/16 00:28:26;;;;;;;3.95;2.95;;;;;;;21.52;35.40;100198.03;10289504;28;21208;-50
2023/06/16 00:33:27;;;;;;;4.07;2.88;;;;;;;21.51;35.32;100196.38;10311951;28;20780;-52
2023/06/16 00:38:29;;;;;;;4.10;3.25;;;;;;;21.48;35.66;100201.28;10309358;28;20379;-51
2023/06/16 00:43:30;;;;;;;4.40;3.03;;;;;;;21.44;35.43;100194.59;10312145;28;20659;-51
2023/06/16 00:48:32;;;;;;;7.60;3.15;;;;;;;21.42;35.66;100193.94;10308575;28;20541;-50
2023/06/16 00:53:34;;;;;;;6.15;3.40;;;;;;;21.41;35.50;100195.84;10311485;28;20156;-51
2023/06/16 00:58:36;;;;;;;4.53;3.20;;;;;;;21.35;35.77;100196.63;10313763;28;21194;-51
2023/06/16 01:03:39;;;;;;;3.53;2.72;;;;;;;21.33;36.05;100199.53;10303177;28;20420;-51
2023/06/16 01:08:58;;;;;;;3.17;2.75;;;;;;;21.31;36.17;100195.31;10310483;28;20076;-50
2023/06/16 01:14:07;;;;;;;3.13;2.83;;;;;;;21.29;35.90;100187.41;10312558;28;20144;-51
2023/06/16 01:19:17;;;;;;;4.10;2.40;;;;;;;21.28;36.02;100195.72;10313063;28;20057;-51
2023/06/16 01:24:23;;;;;;;3.13;2.83;;;;;;;21.23;36.10;100192.75;10312373;28;20042;-51
2023/06/16 01:29:26;;;;;;;4.78;3.22;;;;;;;21.18;36.39;100188.78;10308719;28;20053;-51
2023/06/16 01:34:28;;;;;;;4.60;2.85;;;;;;;21.16;36.37;100187.28;10314443;28;20053;-52
2023/06/16 01:39:31;;;;;;;3.83;3.22;;;;;;;21.08;36.35;100184.72;10309933;28;20050;-51
2023/06/16 01:44:34;;;;;;;;;;;;;;;20.59;38.42;100183.56;10313074;28;20062;-51
2023/06/16 01:49:37;;;;;;;3.92;2.65;;;;;;;20.33;37.84;100184.06;10306858;28;19976;-50
2023/06/16 01:54:39;;;;;;;5.63;3.30;;;;;;;20.27;38.21;100178.41;10302041;28;20057;-50
2023/06/16 01:59:40;;;;;;;9.65;3.70;;;;;;;20.42;38.19;100178.38;10291997;28;20140;-50
2023/06/16 02:04:47;;;;;;;3.60;2.90;;;;;;;20.33;37.99;100179.53;10296416;28;20152;-51
2023/06/16 02:09:50;;;;;;;8.13;3.30;;;;;;;20.17;38.18;100171.63;10313096;28;20515;-51
2023/06/16 02:14:52;;;;;;;5.40;2.80;;;;;;;20.32;38.15;100177.84;10311578;28;20129;-50
2023/06/16 02:19:54;;;;;;;4.60;3.17;;;;;;;20.03;38.66;100170.63;10316255;28;20082;-51
2023/06/16 02:24:57;;;;;;;4.83;2.97;;;;;;;20.30;38.03;100183.44;10314319;28;20517;-50
2023/06/16 02:29:59;;;;;;;4.63;2.80;;;;;;;20.44;38.03;100179.03;10302599;28;20084;-51
2023/06/16 02:35:01;;;;;;;5.57;3.15;;;;;;;20.52;37.94;100188.88;10308051;28;20052;-50
2023/06/16 02:40:06;;;;;;;3.92;2.67;;;;;;;20.50;37.68;100188.25;10311011;28;20060;-51
2023/06/16 02:45:08;;;;;;;4.95;2.90;;;;;;;20.49;37.96;100192.81;10299309;28;20053;-51
2023/06/16 02:50:10;;;;;;;4.00;3.30;;;;;;;20.45;37.92;100186.13;10315081;28;20137;-51
2023/06/16 02:55:12;;;;;;;6.32;3.25;;;;;;;20.42;37.79;100196.47;10309693;28;20058;-50
2023/06/16 03:00:14;;;;;;;5.47;3.53;;;;;;;20.29;38.11;100192.56;10298044;28;20050;-50
2023/06/16 03:05:18;;;;;;;4.32;2.88;;;;;;;20.27;38.52;100186.53;10304150;28;20046;-50
2023/06/16 03:10:19;;;;;;;4.57;3.25;;;;;;;20.33;38.29;100193.03;10282346;28;20054;-50
2023/06/16 03:15:25;;;;;;;4.22;2.95;;;;;;;20.35;38.29;100185.56;10307302;28;20054;-51
2023/06/16 03:20:27;;;;;;;3.85;3.10;;;;;;;20.35;38.70;100185.56;10308526;28;20058;-50
2023/06/16 03:25:30;;;;;;;4.20;3.25;;;;;;;20.30;38.58;100179.91;10313114;28;20581;-50
2023/06/16 03:30:31;;;;;;;5.63;3.35;;;;;;;20.34;38.61;100188.47;10310653;28;20057;-50
2023/06/16 03:35:33;;;;;;;3.78;2.85;;;;;;;20.31;38.71;100184.25;10309773;28;20065;-50
2023/06/16 03:40:34;;;;;;;4.18;3.42;;;;;;;20.29;39.04;100186.31;10310756;28;20058;-50
2023/06/16 03:45:36;;;;;;;5.05;3.05;;;;;;;20.28;39.04;100190.06;10297021;28;20747;-50
2023/06/16 03:50:38;;;;;;;4.80;3.28;;;;;;;20.26;39.14;100197.53;10301224;28;20054;-50
2023/06/16 03:55:39;;;;;;;5.88;3.60;;;;;;;20.27;39.13;100200.03;10303860;28;20124;-50
2023/06/16 04:00:44;;;;;;;3.67;3.30;;;;;;;20.29;39.36;100202.53;10300549;28;20061;-50
2023/06/16 04:05:45;;;;;;;4.63;3.10;;;;;;;20.28;39.46;100198.16;10304403;28;20432;-50
2023/06/16 04:10:48;;;;;;;3.55;3.13;;;;;;;20.27;39.87;100193.81;10305452;28;20048;-50
2023/06/16 04:15:52;;;;;;;5.40;3.30;;;;;;;20.30;40.26;100209.63;10302133;28;20820;-51
2023/06/16 04:20:54;;;;;;;5.93;3.55;;;;;;;20.28;39.86;100206.25;10305029;28;20058;-50
2023/06/16 04:25:57;;;;;;;5.22;2.95;;;;;;;20.27;40.34;100204.63;10306120;28;20272;-50
2023/06/16 04:31:00;;;;;;;4.38;3.33;;;;;;;20.27;40.54;100210.84;10310281;28;20900;-50
2023/06/16 04:36:02;;;;;;;6.63;2.80;;;;;;;20.26;40.65;100211.03;10308085;28;20043;-50
2023/06/16 04:41:04;;;;;;;3.97;2.97;;;;;;;20.22;40.85;100212.44;10313316;28;20120;-50
2023/06/16 04:46:05;;;;;;;4.05;3.42;;;;;;;20.21;40.86;100206.19;10306593;28;20092;-51
2023/06/16 04:51:09;;;;;;;;;;;;;;;20.21;41.01;100206.19;10308351;28;20046;-50
2023/06/16 04:56:10;;;;;;;5.65;2.90;;;;;;;20.26;41.55;100205.63;10309110;28;20005;-51
2023/06/16 05:01:13;;;;;;;4.90;3.50;;;;;;;20.27;41.37;100218.13;10317478;28;20050;-51
2023/06/16 05:06:14;;;;;;;4.97;3.03;;;;;;;20.27;40.68;100210.84;10286346;28;20284;-57
2023/06/16 05:11:17;;;;;;;3.63;3.03;;;;;;;20.25;40.94;100212.91;10273189;28;20057;-57
2023/06/16 05:16:18;;;;;;;5.13;3.10;;;;;;;20.24;42.12;100210.41;10291341;28;20704;-57
2023/06/16 05:21:24;;;;;;;5.13;3.50;;;;;;;20.38;41.92;100206.81;10277519;28;20053;-56
2023/06/16 05:26:26;;;;;;;6.80;3.88;;;;;;;20.43;41.55;100201.69;10295874;28;20053;-56
2023/06/16 05:31:29;;;;;;;5.97;3.10;;;;;;;20.48;41.33;100209.25;10298226;28;20152;-57
2023/06/16 05:36:34;;;;;;;6.60;3.67;;;;;;;20.54;41.14;100215.75;10275119;28;20068;-57
2023/06/16 05:41:36;;;;;;;6.03;3.67;;;;;;;20.49;41.19;100214.44;10283228;28;20065;-57
2023/06/16 05:46:41;;;;;;;3.85;3.10;;;;;;;20.64;41.21;100225.25;10284360;28;20057;-57
2023/06/16 05:51:43;;;;;;;5.53;2.90;;;;;;;20.74;41.13;100233.06;10282211;28;20176;-57
2023/06/16 05:56:45;;;;;;;3.45;3.05;;;;;;;20.77;41.39;100224.56;10277985;28;20479;-57
2023/06/16 06:01:49;;;;;;;3.72;3.10;;;;;;;20.88;40.66;100220.50;10281162;28;20098;-57
2023/06/16 06:06:50;;;;;;;3.92;3.03;;;;;;;21.00;40.17;100235.22;10281181;28;20763;-58
2023/06/16 06:11:52;;;;;;;5.75;3.42;;;;;;;21.03;40.13;100239.41;10283156;28;20046;-57
2023/06/16 06:16:54;;;;;;;4.65;3.03;;;;;;;21.12;40.24;100240.97;10290559;28;20077;-57
2023/06/16 06:21:55;;;;;;;4.25;3.00;;;;;;;21.11;40.12;100242.00;10294596;28;20061;-58
2023/06/16 06:26:57;;;;;;;5.50;2.75;;;;;;;21.19;40.60;100249.97;10259282;28;20838;-57
2023/06/16 06:31:59;;;;;;;4.80;3.33;;;;;;;21.39;40.49;100260.16;10278264;28;20046;-57
2023/06/16 06:37:01;;;;;;;5.85;3.10;;;;;;;21.54;40.42;100255.56;10293047;28;21045;-56
2023/06/16 06:42:04;;;;;;;;;;;;;;;21.48;40.94;100266.28;10292295;28;20096;-57
2023/06/16 06:47:06;;;;;;;3.30;2.85;;;;;;;21.62;40.60;100261.84;10280894;28;20522;-57
2023/06/16 06:52:08;;;;;;;33.72;7.50;;;;;;;21.85;40.34;100273.28;10293777;28;20068;-56
2023/06/16 06:57:11;;;;;;;9.75;4.32;;;;;;;21.83;40.32;100264.53;10296128;28;20058;-59
2023/06/16 07:02:14;;;;;;;4.00;3.30;;;;;;;22.11;39.87;100260.09;10273357;28;20479;-58
2023/06/16 07:07:15;;;;;;;5.82;3.03;;;;;;;22.21;39.91;100277.69;10294533;28;20120;-56
2023/06/16 07:12:37;;;;;;;3.92;2.80;;;;;;;22.34;39.65;100266.13;10366987;28;20794;-58
2023/06/16 07:17:38;;;;;;;3.47;2.95;;;;;;;22.44;40.04;100268.44;10358483;28;20210;-58
2023/06/16 07:22:45;;;;;;;4.13;2.80;;;;;;;22.56;39.56;100277.72;10377681;28;20064;-58
2023/06/16 07:27:46;;;;;;;3.45;3.08;;;;;;;22.71;39.67;100284.84;10396362;28;20883;-58
2023/06/16 07:32:49;;;;;;;4.93;2.90;;;;;;;23.01;38.96;100288.06;10401426;28;20053;-59
2023/06/16 07:37:51;;;;;;;;;;;;;;;23.18;38.76;100288.59;10395677;28;20061;-58
2023/06/16 07:42:52;;;;;;;3.80;3.13;;;;;;;23.27;37.98;100292.78;10405889;28;19967;-59
2023/06/16 07:47:54;;;;;;;5.35;3.40;;;;;;;23.34;38.14;100294.66;10398590;28;20052;-59
2023/06/16 07:52:56;;;;;;;3.47;2.30;;;;;;;23.53;37.87;100287.59;10397782;28;20053;-58
2023/06/16 07:57:57;;;;;;;8.38;3.22;;;;;;;23.44;38.20;100292.38;10391435;28;20056;-58
2023/06/16 08:02:59;;;;;;;6.45;3.10;;;;;;;23.73;37.97;100284.88;10398494;28;20080;-59
2023/06/16 08:08:02;;;;;;;4.97;3.05;;;;;;;23.99;37.78;100278.63;10388781;28;20385;-59
2023/06/16 08:13:08;;;;;;;6.70;2.97;;;;;;;23.98;37.91;100271.50;10410747;28;20385;-59
2023/06/16 08:18:10;;;;;;;;;;;;;;;24.27;37.64;100272.06;10392214;27;20276;-59
2023/06/16 08:23:12;;;;;;;3.75;2.78;;;;;;;24.50;36.80;100279.72;10377874;28;19936;-58
2023/06/16 08:28:13;;;;;;;5.30;3.10;;;;;;;24.31;36.29;100270.59;10369248;28;20807;-59
2023/06/16 08:33:15;;;;;;;10.57;3.80;;;;;;;24.48;36.28;100268.22;10365229;28;20041;-59
2023/06/16 08:38:17;;;;;;;3.78;2.78;;;;;;;24.74;36.29;100269.19;10359739;28;20647;-59
2023/06/16 08:43:22;;;;;;;4.43;3.25;;;;;;;24.90;35.76;100268.69;10379573;28;20061;-61
2023/06/16 08:48:24;;;;;;;3.80;2.58;;;;;;;25.04;35.37;100274.91;10362872;28;20399;-59
2023/06/16 08:53:29;;;;;;;3.22;2.42;;;;;;;25.26;35.32;100278.13;10369804;28;20086;-59
2023/06/16 08:58:32;;;;;;;3.53;3.00;;;;;;;25.49;34.74;100274.00;10366958;28;20377;-60
2023/06/16 09:03:35;;;;;;;3.47;2.97;;;;;;;25.63;34.26;100267.41;10351314;28;20692;-59
2023/06/16 09:08:37;;;;;;;4.57;3.03;;;;;;;25.64;34.68;100268.22;10357647;28;20869;-59
2023/06/16 09:13:42;;;;;;;5.60;2.80;;;;;;;25.80;34.57;100250.47;10364762;28;20154;-58
2023/06/16 09:18:44;;;;;;;5.03;3.10;;;;;;;26.09;34.83;100260.72;10364012;28;20576;-60
2023/06/16 09:23:48;;;;;;;5.30;3.30;;;;;;;26.25;34.20;100252.97;10364048;28;20052;-59
2023/06/16 09:28:51;;;;;;;3.58;2.80;;;;;;;25.90;33.83;100254.34;10367171;28;20057;-59
2023/06/16 09:33:52;;;;;;;3.97;3.53;;;;;;;26.06;34.15;100255.72;10365874;28;20092;-59
2023/06/16 09:38:54;;;;;;;3.83;3.53;;;;;;;25.97;34.42;100251.56;10367752;28;20451;-59
2023/06/16 09:43:58;;;;;;;3.38;2.72;;;;;;;26.26;34.04;100241.84;10364534;28;20067;-59
2023/06/16 09:49:00;;;;;;;6.22;3.55;;;;;;;26.56;33.50;100241.06;10358448;28;20057;-60
2023/06/16 09:54:02;;;;;;;3.90;2.70;;;;;;;26.76;32.57;100232.63;10369057;28;20053;-59
2023/06/16 09:59:03;;;;;;;5.05;3.33;;;;;;;26.99;32.59;100231.91;10373252;28;21065;-60
2023/06/16 10:04:09;;;;;;;6.67;3.27;;;;;;;26.92;32.33;100231.16;10365150;28;20533;-62
2023/06/16 10:09:11;;;;;;;2.78;2.58;;;;;;;26.77;32.78;100230.75;10355153;28;20053;-59
2023/06/16 10:14:16;;;;;;;4.15;2.92;;;;;;;27.08;32.71;100218.75;10356287;28;20068;-61
2023/06/16 10:19:21;;;;;;;5.30;2.92;;;;;;;27.07;32.41;100219.81;10365724;28;20053;-59
2023/06/16 10:24:23;;;;;;;6.00;3.30;;;;;;;27.32;32.45;100225.13;10357713;28;20418;-60
2023/06/16 10:29:28;;;;;;;4.85;3.45;;;;;;;27.53;31.69;100220.13;10363199;28;20049;-61
2023/06/16 10:34:39;;;;;;;5.30;2.88;;;;;;;27.62;31.91;100209.69;10351880;28;20641;-59
2023/06/16 10:39:42;;;;;;;5.00;2.83;;;;;;;27.33;32.45;100209.56;10350480;28;20073;-59
2023/06/16 10:44:43;;;;;;;3.83;3.20;;;;;;;27.25;31.92;100213.44;10358545;28;20529;-57
2023/06/16 10:50:04;;;;;;;5.57;2.90;;;;;;;27.48;30.81;100212.66;10361654;28;20048;-60
2023/06/16 10:55:32;;;;;;;8.13;2.65;;;;;;;27.80;30.67;100197.78;10337344;28;20053;-57
2023/06/16 11:00:33;;;;;;;6.85;2.60;;;;;;;28.15;30.26;100200.50;10356914;28;20049;-58
2023/06/16 11:05:39;;;;;;;3.20;2.90;;;;;;;28.28;29.24;100196.66;10349910;28;20657;-58
2023/06/16 11:10:56;;;;;;;5.55;2.40;;;;;;;28.18;28.72;100191.81;10360531;28;20467;-60
2023/06/16 11:15:59;;;;;;;3.63;2.75;;;;;;;28.28;28.49;100182.16;10360411;28;20516;-59
2023/06/16 11:21:03;;;;;;;4.53;2.50;;;;;;;27.98;28.77;100191.38;10365600;28;20095;-58
2023/06/16 11:26:09;;;;;;;2.85;2.63;;;;;;;28.28;28.38;100187.63;10358775;28;20139;-57
2023/06/16 11:31:14;;;;;;;2.58;2.38;;;;;;;28.58;28.54;100176.44;10375019;28;20077;-57
2023/06/16 11:36:21;;;;;;;3.53;2.35;;;;;;;28.74;27.65;100181.16;10373429;28;20543;-63
2023/06/16 11:41:27;;;;;;;4.32;2.03;;;;;;;28.79;27.04;100172.19;10372942;28;20061;-59
2023/06/16 11:46:32;;;;;;;3.28;2.13;;;;;;;28.94;26.85;100179.03;10365096;28;20053;-59
2023/06/16 11:51:34;;;;;;;2.83;2.25;;;;;;;28.99;26.97;100170.91;10373590;28;20156;-62
2023/06/16 11:56:36;;;;;;;2.47;2.25;;;;;;;28.90;25.63;100152.16;10369644;28;20474;-58
2023/06/16 12:01:38;;;;;;;3.67;2.33;;;;;;;28.72;26.48;100166.91;10382005;28;20104;-58
2023/06/16 12:06:40;;;;;;;3.88;2.47;;;;;;;28.73;26.38;100162.25;10379073;28;20055;-58
2023/06/16 12:11:46;;;;;;;3.05;2.22;;;;;;;28.30;26.16;100160.84;10378267;28;20057;-58
2023/06/16 12:16:48;;;;;;;2.85;2.63;;;;;;;28.02;26.45;100163.31;10375572;28;20052;-58
2023/06/16 12:21:51;;;;;;;3.25;2.75;;;;;;;27.74;27.43;100155.81;10361206;28;20057;-59
2023/06/16 12:26:53;;;;;;;4.00;2.45;;;;;;;27.73;27.50;100165.13;10366480;28;20053;-59
2023/06/16 12:31:57;;;;;;;4.45;2.03;;;;;;;27.69;27.79;100163.94;10363538;28;20821;-62
2023/06/16 12:37:01;;;;;;;4.88;2.88;;;;;;;27.23;27.98;100165.53;10377719;28;20049;-58
2023/06/16 12:42:05;;;;;;;3.47;2.78;;;;;;;26.89;29.15;100154.31;10376267;28;20079;-58
2023/06/16 12:47:07;;;;;;;5.40;2.95;;;;;;;26.90;29.39;100155.97;10372203;28;20531;-57
2023/06/16 12:52:11;;;;;;;3.93;3.03;;;;;;;26.86;29.74;100160.25;10376320;28;20053;-57
2023/06/16 12:57:13;;;;;;;4.68;2.75;;;;;;;26.65;29.91;100156.97;10374839;28;20048;-58
2023/06/16 13:02:15;;;;;;;7.28;2.88;;;;;;;26.52;30.14;100149.78;10380213;28;20045;-58
2023/06/16 13:07:17;;;;;;;6.23;3.10;;;;;;;26.68;31.25;100147.50;10371427;28;20053;-57
2023/06/16 13:12:19;;;;;;;3.42;2.50;;;;;;;27.03;30.68;100150.31;10372496;28;20107;-58
2023/06/16 13:17:20;;;;;;;4.13;2.50;;;;;;;27.36;29.20;100148.97;10366740;28;21033;-57
2023/06/16 13:22:23;;;;;;;6.68;2.92;;;;;;;27.52;29.39;100145.50;10364687;28;20087;-57
2023/06/16 13:27:25;;;;;;;3.92;3.50;;;;;;;27.56;27.91;100134.09;10369047;28;20393;-58
2023/06/16 13:32:27;;;;;;;5.28;2.58;;;;;;;27.65;28.25;100138.13;10372944;28;20068;-58
2023/06/16 13:37:28;;;;;;;3.57;2.90;;;;;;;27.69;29.12;100122.91;10386247;28;20710;-58
2023/06/16 13:42:30;;;;;;;4.25;2.72;;;;;;;27.91;28.99;100128.59;10371132;28;20743;-58
2023/06/16 13:47:36;;;;;;;2.50;2.30;;;;;;;27.81;28.56;100128.38;10368453;28;20080;-58
2023/06/16 13:52:37;;;;;;;3.72;3.05;;;;;;;27.64;29.50;100120.06;10360986;28;20960;-58
2023/06/16 13:57:39;;;;;;;4.80;3.27;;;;;;;27.57;29.52;100124.84;10370934;28;20685;-57
2023/06/16 14:02:41;;;;;;;5.10;2.97;;;;;;;27.63;29.13;100115.66;10371733;28;20706;-58
2023/06/16 14:07:43;;;;;;;3.92;2.63;;;;;;;27.50;29.26;100114.00;10376904;28;20061;-58
2023/06/16 14:12:45;;;;;;;3.22;2.88;;;;;;;27.64;29.12;100103.69;10373543;28;20087;-60
2023/06/16 14:17:46;;;;;;;4.93;3.53;;;;;;;27.73;28.94;100101.38;10375781;28;20219;-58
2023/06/16 14:22:48;;;;;;;4.23;2.53;;;;;;;27.70;28.32;100094.50;10363958;28;20061;-59
2023/06/16 14:27:49;;;;;;;4.20;2.43;;;;;;;27.65;28.45;100080.72;10371887;28;20057;-59
2023/06/16 14:32:51;;;;;;;5.37;2.60;;;;;;;27.47;28.04;100077.06;10366507;28;20068;-59
2023/06/16 14:37:53;;;;;;;3.97;2.70;;;;;;;27.37;28.40;100079.56;10369721;28;20072;-58
2023/06/16 14:42:54;;;;;;;3.78;2.40;;;;;;;27.33;28.69;100094.78;10375259;28;20608;-58
2023/06/16 14:47:56;;;;;;;5.18;2.10;;;;;;;27.13;30.45;100085.00;10368740;28;20462;-56
2023/06/16 14:52:58;;;;;;;3.90;2.77;;;;;;;26.98;29.70;100096.41;10367483;28;20513;-52
2023/06/16 14:57:59;;;;;;;3.10;2.80;;;;;;;26.94;30.08;100097.13;10360237;28;20288;-52
2023/06/16 15:03:01;;;;;;;4.07;2.60;;;;;;;26.70;30.84;100099.78;10376185;28;20214;-52
2023/06/16 15:08:02;;;;;;;2.85;2.53;;;;;;;26.74;30.42;100098.25;10376571;28;20056;-56
2023/06/16 15:13:04;;;;;;;3.97;2.53;;;;;;;26.62;30.30;100090.00;10378409;28;20056;-56
2023/06/16 15:18:05;;;;;;;3.00;2.58;;;;;;;26.53;30.53;100079.66;10377290;28;20779;-56
2023/06/16 15:23:07;;;;;;;3.42;3.08;;;;;;;26.53;31.25;100085.09;10375966;28;20806;-56
2023/06/16 15:28:09;;;;;;;4.13;2.20;;;;;;;26.50;30.56;100075.50;10384297;28;20144;-56
2023/06/16 15:33:14;;;;;;;3.72;2.78;;;;;;;26.58;30.19;100077.91;10390133;28;20050;-56
2023/06/16 15:38:16;;;;;;;3.38;2.92;;;;;;;26.64;30.23;100065.22;10387859;28;20077;-58
2023/06/16 15:43:17;;;;;;;3.58;3.28;;;;;;;26.58;29.98;100055.22;10411687;28;20041;-56
2023/06/16 15:48:19;;;;;;;5.32;3.58;;;;;;;26.60;30.00;100062.13;10391882;28;20056;-56
2023/06/16 15:53:21;;;;;;;6.47;3.27;;;;;;;26.70;30.20;100047.94;10395856;28;20136;-56
2023/06/16 15:58:22;;;;;;;4.07;3.67;;;;;;;26.70;29.44;100039.72;10393462;28;20075;-56
2023/06/16 16:03:24;;;;;;;5.13;3.33;;;;;;;26.54;29.56;100037.66;10390548;28;20060;-56
2023/06/16 16:08:25;;;;;;;3.20;2.88;;;;;;;26.38;29.91;100039.19;10386000;28;20087;-56
2023/06/16 16:13:28;;;;;;;4.57;3.22;;;;;;;26.16;30.05;100030.69;10391546;28;20120;-56
2023/06/16 16:18:29;;;;;;;2.85;2.60;;;;;;;26.12;29.99;100019.38;10390519;28;20049;-56
2023/06/16 16:23:31;;;;;;;4.35;2.92;;;;;;;26.27;29.93;100038.91;10398877;28;20140;-56
2023/06/16 16:28:33;;;;;;;4.47;3.10;;;;;;;26.33;29.59;100028.13;10390550;28;20049;-56
2023/06/16 16:33:34;;;;;;;4.35;3.35;;;;;;;26.32;29.64;100034.63;10386900;28;20072;-56
2023/06/16 16:38:37;;;;;;;4.82;3.17;;;;;;;26.20;29.78;100026.44;10392059;28;20064;-56
2023/06/16 16:43:38;;;;;;;7.28;5.50;;;;;;;26.18;29.95;100029.41;10386089;28;20865;-56
2023/06/16 16:48:40;;;;;;;8.20;6.57;;;;;;;26.22;29.96;100032.47;10385827;28;20049;-56
2023/06/16 16:53:41;;;;;;;4.93;4.43;;;;;;;26.22;30.29;100029.75;10385920;28;20118;-57
2023/06/16 16:58:42;;;;;;;4.25;3.33;;;;;;;26.20;30.08;100037.34;10396494;28;21547;-56
2023/06/16 17:03:44;;;;;;;3.70;3.28;;;;;;;26.15;30.22;100039.91;10389965;28;20049;-56
2023/06/16 17:08:46;;;;;;;4.07;3.20;;;;;;;26.14;30.14;100047.28;10389520;28;20060;-56
2023/06/16 17:13:47;;;;;;;3.22;2.92;;;;;;;25.94;29.98;100050.22;10386609;28;20140;-56
2023/06/16 17:18:50;;;;;;;3.53;3.22;;;;;;;25.86;29.92;100047.84;10395039;28;20543;-56
2023/06/16 17:23:52;;;;;;;5.75;3.58;;;;;;;25.88;30.00;100051.16;10389311;28;20120;-55
2023/06/16 17:28:54;;;;;;;4.73;3.03;;;;;;;25.94;30.06;100056.53;10384749;28;20852;-56
2023/06/16 17:33:56;;;;;;;6.15;3.00;;;;;;;26.00;30.33;100053.97;10384418;28;20496;-56
2023/06/16 17:38:58;;;;;;;3.60;2.78;;;;;;;26.03;30.26;100056.22;10389581;28;20052;-63
2023/06/16 17:44:03;;;;;;;4.28;3.05;;;;;;;25.90;30.11;100044.41;10386013;28;20079;-56
2023/06/16 17:49:06;;;;;;;4.10;3.70;;;;;;;25.90;30.52;100047.16;10391469;28;20083;-56
2023/06/16 17:54:08;;;;;;;;;;;;;;;25.90;30.61;100043.59;10382423;28;20056;-58
2023/06/16 17:59:09;;;;;;;4.47;3.70;;;;;;;25.90;30.62;100038.97;10383809;28;19932;-56
2023/06/16 18:04:11;;;;;;;5.40;3.95;;;;;;;25.88;31.03;100042.97;10385434;28;20045;-56
2023/06/16 18:09:12;;;;;;;4.15;3.72;;;;;;;25.72;31.23;100037.09;10379960;28;20826;-56
2023/06/16 18:14:14;;;;;;;4.10;3.53;;;;;;;25.59;31.20;100027.19;10385982;28;20136;-56
2023/06/16 18:19:15;;;;;;;3.70;3.40;;;;;;;25.54;31.28;100029.75;10388716;28;20146;-56
2023/06/16 18:24:17;;;;;;;5.25;4.07;;;;;;;25.47;31.28;100028.19;10395799;28;20053;-56
2023/06/16 18:29:21;;;;;;;4.43;3.63;;;;;;;25.37;31.25;100026.81;10386957;28;20321;-56
2023/06/16 18:34:23;;;;;;;4.00;3.60;;;;;;;25.30;31.48;100022.50;10385655;28;20548;-56
2023/06/16 18:39:25;;;;;;;5.38;3.55;;;;;;;25.25;31.43;100023.13;10389459;28;20049;-56
2023/06/16 18:44:27;;;;;;;6.70;3.37;;;;;;;25.22;32.06;100023.59;10383611;28;20172;-56
2023/06/16 18:49:28;;;;;;;5.00;3.70;;;;;;;25.18;32.10;100025.13;10386095;28;20324;-56
2023/06/16 18:54:29;;;;;;;4.20;3.20;;;;;;;25.12;32.39;100031.47;10385493;28;20128;-55
2023/06/16 18:59:32;;;;;;;3.95;3.60;;;;;;;25.08;32.91;100030.25;10374003;28;20164;-56
2023/06/16 19:04:34;;;;;;;4.60;4.05;;;;;;;25.01;33.60;100031.16;10380584;28;20841;-57
2023/06/16 19:09:37;;;;;;;6.13;4.47;;;;;;;24.92;33.87;100035.22;10390674;28;20055;-57
2023/06/16 19:14:40;;;;;;;5.10;4.60;;;;;;;24.95;34.00;100037.50;10382786;28;20133;-56
2023/06/16 19:19:41;;;;;;;5.80;5.30;;;;;;;24.87;34.89;100040.47;10387852;28;20635;-55
2023/06/16 19:24:46;;;;;;;9.02;5.50;;;;;;;24.79;35.51;100038.88;10380924;28;20567;-56
2023/06/16 19:29:47;;;;;;;5.95;5.38;;;;;;;24.71;35.83;100041.84;10392486;28;20762;-56
2023/06/16 19:34:48;;;;;;;5.32;4.82;;;;;;;24.76;36.15;100049.38;10379082;28;20136;-56
2023/06/16 19:39:50;;;;;;;8.30;5.60;;;;;;;24.50;36.28;100041.16;10385907;28;20048;-56
2023/06/16 19:44:52;;;;;;;7.53;6.25;;;;;;;24.40;36.17;100051.69;10382864;28;20164;-56
2023/06/16 19:49:55;;;;;;;7.30;6.60;;;;;;;24.38;37.46;100067.41;10378174;28;20162;-55
2023/06/16 19:54:57;;;;;;;7.03;6.10;;;;;;;24.20;37.70;100070.00;10374192;28;20158;-56
2023/06/16 19:59:59;;;;;;;6.18;5.55;;;;;;;24.13;38.59;100067.34;10389086;28;20945;-56
2023/06/16 20:05:01;;;;;;;6.78;6.00;;;;;;;24.09;39.07;100077.81;10385469;28;20704;-55
2023/06/16 20:10:03;;;;;;;7.25;5.45;;;;;;;24.10;38.67;100075.94;10381469;28;20712;-56
2023/06/16 20:15:05;;;;;;;8.70;6.43;;;;;;;24.02;38.94;100084.31;10384536;28;20098;-56
2023/06/16 20:20:10;;;;;;;7.10;6.40;;;;;;;24.05;39.21;100083.88;10394434;28;20158;-59
2023/06/16 20:25:12;;;;;;;6.88;5.93;;;;;;;24.06;39.01;100110.88;10390100;28;20053;-55
2023/06/16 20:30:13;;;;;;;6.22;5.43;;;;;;;23.95;39.51;100101.50;10384953;28;20049;-57
2023/06/16 20:35:17;;;;;;;5.90;5.00;;;;;;;23.88;39.27;100114.28;10382860;28;20049;-58
2023/06/16 20:40:21;;;;;;;5.63;5.03;;;;;;;23.88;39.27;100116.16;10393121;28;20371;-57
2023/06/16 20:45:27;;;;;;;11.38;6.22;;;;;;;23.85;39.11;100116.56;10379687;28;20063;-57
2023/06/16 20:50:30;;;;;;;6.57;5.32;;;;;;;23.79;39.62;100118.25;10383982;28;20129;-57
2023/06/16 20:55:32;;;;;;;7.65;4.13;;;;;;;23.76;39.33;100110.53;10380356;28;20126;-57
2023/06/16 21:00:34;;;;;;;5.13;4.35;;;;;;;23.70;38.82;100116.81;10384288;28;20049;-57
2023/06/16 21:05:43;;;;;;;4.72;4.32;;;;;;;23.64;38.56;100113.06;10381266;28;20446;-57
2023/06/16 21:10:45;;;;;;;5.13;4.57;;;;;;;23.60;38.42;100109.09;10386379;28;20092;-57
2023/06/16 21:15:47;;;;;;;4.38;3.97;;;;;;;23.56;38.41;100111.41;10388176;28;20507;-58
2023/06/16 21:20:48;;;;;;;5.20;4.25;;;;;;;23.55;38.25;100114.34;10385355;28;20196;-57
2023/06/16 21:25:52;;;;;;;6.22;4.13;;;;;;;23.49;38.30;100110.59;10384984;28;20593;-57
2023/06/16 21:30:54;;;;;;;5.53;4.40;;;;;;;23.44;38.10;100119.38;10382932;28;20060;-57
2023/06/16 21:35:55;;;;;;;5.85;4.35;;;;;;;23.38;38.28;100122.13;10388084;28;20053;-57
2023/06/16 21:40:58;;;;;;;4.55;4.13;;;;;;;23.34;38.01;100115.44;10388238;28;20124;-57
2023/06/16 21:46:00;;;;;;;4.90;4.43;;;;;;;23.27;38.28;100121.72;10386953;28;20052;-56
2023/06/16 21:51:01;;;;;;;5.43;4.97;;;;;;;23.24;38.73;100119.41;10380348;28;20142;-57
2023/06/16 21:56:03;;;;;;;6.47;5.05;;;;;;;23.10;38.59;100117.75;10378640;28;20109;-57
2023/06/16 22:01:05;;;;;;;6.97;5.20;;;;;;;23.06;39.12;100124.59;10379181;28;20076;-57
2023/06/16 22:06:09;;;;;;;6.88;5.55;;;;;;;23.01;39.32;100119.78;10385392;28;20479;-56
2023/06/16 22:11:12;;;;;;;5.50;4.95;;;;;;;22.81;39.40;100124.41;10369815;28;20402;-57
2023/06/16 22:16:14;;;;;;;;;;;;;;;22.82;39.70;100121.47;10366283;28;20171;-57
2023/06/16 22:21:17;;;;;;;5.18;4.55;;;;;;;22.82;39.76;100121.47;10227511;28;21502;-57
2023/06/16 22:26:27;;;;;;;5.20;4.70;;;;;;;22.76;40.58;100120.41;10334259;28;20189;-56
2023/06/16 22:31:35;;;;;;;5.90;5.10;;;;;;;22.40;41.22;100113.47;10379761;28;20449;-57
2023/06/16 22:36:39;;;;;;;7.43;5.47;;;;;;;22.34;40.64;100097.16;10317569;28;20436;-57
2023/06/16 22:41:43;;;;;;;7.95;5.13;;;;;;;22.24;40.89;100113.78;10355849;28;20408;-57
2023/06/16 22:46:48;;;;;;;6.25;5.65;;;;;;;22.24;41.72;100108.38;10358902;28;20068;-49
2023/06/16 22:51:57;;;;;;;7.70;5.40;;;;;;;22.31;42.10;100119.22;10372656;28;20053;-50
2023/06/16 22:56:59;;;;;;;8.50;5.90;;;;;;;22.25;42.16;100120.91;10383786;28;20490;-50
2023/06/16 23:02:01;;;;;;;6.13;5.13;;;;;;;22.19;41.50;100122.53;10383075;28;20053;-50
2023/06/16 23:07:03;;;;;;;5.95;5.30;;;;;;;22.16;42.18;100120.25;10387480;28;20513;-50
2023/06/16 23:12:04;;;;;;;6.78;6.15;;;;;;;22.11;42.11;100125.41;10389494;28;20409;-50
2023/06/16 23:17:06;;;;;;;7.72;5.60;;;;;;;22.10;42.05;100126.47;10386077;28;20059;-50